Time;durP1;ratioP1;P1;durP2;ratioP2;P2;SDS_P1;SDS_P2;PMS_P1;PMS_P2;Temp;Humidity;BMP_temperature;BMP_pressure;BME280_temperature;BME280_humidity;BME280_pressure;Samples;Min_cycle;Max_cycle;Signal;HPM_P1;HPM_P2
2021/10/06 00:00:23;;;;;;;15.38;2.92;;;12.20;99.90;;;;;;5050839;28;20481;-73
2021/10/06 00:02:49;;;;;;;6.00;0.90;;;12.20;99.90;;;;;;5050401;28;20050;-73
2021/10/06 00:05:15;;;;;;;5.88;1.00;;;12.20;99.90;;;;;;5050090;28;20021;-74
2021/10/06 00:07:40;;;;;;;7.85;0.95;;;12.20;99.90;;;;;;5049424;28;20028;-74
2021/10/06 00:10:07;;;;;;;3.75;1.42;;;12.20;99.90;;;;;;5050622;28;20351;-74
2021/10/06 00:12:33;;;;;;;8.48;0.95;;;12.20;99.90;;;;;;5050695;28;20025;-74
2021/10/06 00:14:59;;;;;;;6.32;0.98;;;12.20;99.90;;;;;;5050578;28;20023;-74
2021/10/06 00:17:25;;;;;;;4.75;0.80;;;12.20;99.90;;;;;;5050652;28;20170;-74
2021/10/06 00:19:52;;;;;;;6.57;1.10;;;12.20;99.90;;;;;;5050674;28;20410;-74
2021/10/06 00:22:18;;;;;;;9.82;0.75;;;12.10;99.90;;;;;;5050359;28;20532;-74
2021/10/06 00:24:44;;;;;;;6.70;0.95;;;12.10;99.90;;;;;;5050446;28;20029;-74
2021/10/06 00:27:09;;;;;;;4.43;1.25;;;12.10;99.90;;;;;;5050670;28;20370;-74
2021/10/06 00:29:35;;;;;;;8.68;1.70;;;12.10;99.90;;;;;;5050522;28;20021;-74
2021/10/06 00:32:00;;;;;;;3.50;0.88;;;12.10;99.90;;;;;;5050390;28;20086;-73
2021/10/06 00:34:26;;;;;;;5.40;0.55;;;12.00;99.90;;;;;;5050342;28;20040;-74
2021/10/06 00:36:51;;;;;;;3.95;0.52;;;12.00;99.90;;;;;;5049983;28;20049;-74
2021/10/06 00:39:17;;;;;;;3.22;0.60;;;12.00;99.90;;;;;;5050196;28;20053;-74
2021/10/06 00:41:42;;;;;;;4.15;1.33;;;12.00;99.90;;;;;;5050143;28;20013;-73
2021/10/06 00:44:17;;;;;;;3.22;0.40;;;12.00;99.90;;;;;;5050363;28;20025;-74
2021/10/06 00:46:43;;;;;;;12.70;1.52;;;12.00;99.90;;;;;;5042385;28;20017;-74
2021/10/06 00:49:09;;;;;;;5.13;0.60;;;12.00;99.90;;;;;;5050170;28;20100;-73
2021/10/06 00:51:34;;;;;;;5.72;0.93;;;12.00;99.90;;;;;;5036080;28;20108;-74
2021/10/06 00:54:01;;;;;;;4.35;0.80;;;12.00;99.90;;;;;;5050331;28;20028;-74
2021/10/06 00:56:26;;;;;;;8.23;1.30;;;11.90;99.90;;;;;;5049836;28;20021;-74
2021/10/06 00:58:52;;;;;;;6.43;0.50;;;11.90;99.90;;;;;;5050274;28;20393;-74
2021/10/06 01:01:18;;;;;;;2.80;0.50;;;11.90;99.90;;;;;;5050004;28;20025;-74
2021/10/06 01:03:44;;;;;;;2.85;0.38;;;11.90;99.90;;;;;;5049878;28;20025;-74
2021/10/06 01:06:10;;;;;;;5.00;0.75;;;11.90;99.90;;;;;;5050090;28;20678;-74
2021/10/06 01:08:36;;;;;;;2.45;0.45;;;12.00;99.90;;;;;;5050156;28;20025;-74
2021/10/06 01:11:02;;;;;;;2.78;0.57;;;11.90;99.90;;;;;;5049100;28;20108;-74
2021/10/06 01:13:28;;;;;;;5.30;0.35;;;11.90;99.90;;;;;;5048488;28;20116;-74
2021/10/06 01:15:53;;;;;;;4.60;1.55;;;11.90;99.90;;;;;;5050192;28;20024;-74
2021/10/06 01:18:19;;;;;;;6.38;0.75;;;11.80;99.90;;;;;;5049946;28;20033;-74
2021/10/06 01:20:45;;;;;;;4.38;0.40;;;11.80;99.90;;;;;;5049857;28;20187;-73
2021/10/06 01:23:12;;;;;;;4.47;0.30;;;11.80;99.90;;;;;;5048651;28;20017;-74
2021/10/06 01:25:38;;;;;;;9.73;1.48;;;11.80;99.90;;;;;;5050014;28;20021;-74
2021/10/06 01:28:04;;;;;;;4.55;0.52;;;11.80;99.90;;;;;;5050030;28;20496;-73
2021/10/06 01:30:29;;;;;;;5.45;1.42;;;11.80;99.90;;;;;;5048478;28;20021;-73
2021/10/06 01:32:55;;;;;;;3.45;0.70;;;11.80;99.90;;;;;;5049743;28;20029;-74
2021/10/06 01:35:20;;;;;;;5.82;0.63;;;11.80;99.90;;;;;;5050036;28;20061;-73
2021/10/06 01:37:46;;;;;;;5.20;0.30;;;11.80;99.90;;;;;;5049985;28;20461;-74
2021/10/06 01:40:14;;;;;;;3.85;0.40;;;11.80;99.90;;;;;;5048417;28;20025;-74
2021/10/06 01:42:40;;;;;;;7.82;0.32;;;11.80;99.90;;;;;;5041979;28;20021;-74
2021/10/06 01:45:13;;;;;;;6.57;0.73;;;11.80;99.90;;;;;;5050368;28;20116;-73
2021/10/06 01:47:39;;;;;;;5.18;1.50;;;11.80;99.90;;;;;;5053699;28;20378;-74
2021/10/06 01:50:05;;;;;;;5.45;0.50;;;11.80;99.90;;;;;;5051846;28;20024;-73
2021/10/06 01:52:30;;;;;;;4.45;0.30;;;11.80;99.90;;;;;;5052049;28;20025;-74
2021/10/06 01:54:56;;;;;;;4.40;0.50;;;11.70;99.90;;;;;;5058598;28;20017;-73
2021/10/06 01:57:22;;;;;;;4.40;0.50;;;11.70;99.90;;;;;;5053780;28;20756;-74
2021/10/06 01:59:48;;;;;;;6.10;0.85;;;11.70;99.90;;;;;;5053215;28;20469;-73
2021/10/06 02:02:14;;;;;;;5.60;0.40;;;11.70;99.90;;;;;;5052783;28;20489;-74
2021/10/06 02:04:40;;;;;;;5.85;0.65;;;11.70;99.90;;;;;;5052932;28;20021;-73
2021/10/06 02:07:06;;;;;;;6.47;0.70;;;11.70;99.90;;;;;;5052952;28;20504;-73
2021/10/06 02:09:31;;;;;;;5.25;0.40;;;11.70;99.90;;;;;;5045706;28;20029;-73
2021/10/06 02:11:57;;;;;;;4.32;0.50;;;11.80;99.90;;;;;;5052862;28;20033;-74
2021/10/06 02:14:22;;;;;;;3.90;0.55;;;11.70;99.90;;;;;;5052831;28;20025;-73
2021/10/06 02:16:48;;;;;;;5.68;0.63;;;11.70;99.90;;;;;;5052858;28;20032;-74
2021/10/06 02:19:13;;;;;;;5.65;0.40;;;11.70;99.90;;;;;;5051296;28;20036;-74
2021/10/06 02:21:39;;;;;;;5.95;0.70;;;11.70;99.90;;;;;;5052499;28;20116;-74
2021/10/06 02:24:05;;;;;;;3.08;0.20;;;11.60;99.90;;;;;;5052431;28;20083;-73
2021/10/06 02:26:32;;;;;;;4.13;0.63;;;11.70;99.90;;;;;;5052812;28;20090;-73
2021/10/06 02:28:58;;;;;;;5.03;0.60;;;11.70;99.90;;;;;;5052524;28;20405;-74
2021/10/06 02:31:24;;;;;;;8.35;1.33;;;11.70;99.90;;;;;;5047154;28;20026;-73
2021/10/06 02:33:50;;;;;;;5.88;1.17;;;11.60;99.90;;;;;;5045549;28;20025;-74
2021/10/06 02:36:15;;;;;;;5.15;0.50;;;11.60;99.90;;;;;;5055778;28;20440;-72
2021/10/06 02:38:41;;;;;;;4.05;0.75;;;11.60;99.90;;;;;;5058030;28;20505;-72
2021/10/06 02:41:07;;;;;;;4.43;0.45;;;11.60;99.90;;;;;;5057381;28;20021;-73
2021/10/06 02:43:32;;;;;;;3.63;0.40;;;11.50;99.90;;;;;;5056399;28;20048;-74
2021/10/06 02:45:58;;;;;;;6.68;1.67;;;11.50;99.90;;;;;;5055641;28;20033;-74
2021/10/06 02:48:24;;;;;;;2.28;0.47;;;11.50;99.90;;;;;;5054768;28;20430;-73
2021/10/06 02:50:50;;;;;;;2.60;0.40;;;11.50;99.90;;;;;;5053309;28;20037;-73
2021/10/06 02:53:16;;;;;;;7.60;0.40;;;11.50;99.90;;;;;;5051333;28;20024;-73
2021/10/06 02:55:42;;;;;;;3.95;0.50;;;11.50;99.90;;;;;;5052527;28;20035;-74
2021/10/06 02:58:08;;;;;;;8.40;0.70;;;11.50;99.90;;;;;;5052197;28;20053;-73
2021/10/06 03:00:33;;;;;;;3.92;0.28;;;11.50;99.90;;;;;;5058658;28;20082;-72
2021/10/06 03:02:59;;;;;;;2.78;0.40;;;11.50;99.90;;;;;;5050776;28;20025;-73
2021/10/06 03:05:24;;;;;;;4.63;0.30;;;11.50;99.90;;;;;;5052082;28;20028;-73
2021/10/06 03:07:50;;;;;;;6.50;0.60;;;11.40;99.90;;;;;;5051885;28;20014;-73
2021/10/06 03:10:16;;;;;;;1.58;0.52;;;11.40;99.90;;;;;;5052306;28;20091;-73
2021/10/06 03:12:42;;;;;;;4.45;0.57;;;11.40;99.90;;;;;;5051722;28;20474;-73
2021/10/06 03:15:09;;;;;;;6.22;0.55;;;11.40;99.90;;;;;;5050658;28;20057;-74
2021/10/06 03:17:34;;;;;;;5.05;0.50;;;11.40;99.90;;;;;;5051745;28;20048;-73
2021/10/06 03:20:00;;;;;;;4.82;0.30;;;11.40;99.90;;;;;;5037985;28;20066;-73
2021/10/06 03:22:26;;;;;;;5.90;0.55;;;11.30;99.90;;;;;;5037432;28;20044;-73
2021/10/06 03:24:51;;;;;;;7.35;1.45;;;11.40;99.90;;;;;;5051763;28;20021;-73
2021/10/06 03:27:17;;;;;;;2.83;0.85;;;11.40;99.90;;;;;;5051741;28;20529;-73
2021/10/06 03:29:43;;;;;;;5.15;1.10;;;11.30;99.90;;;;;;5051580;28;20109;-73
2021/10/06 03:32:10;;;;;;;4.50;0.43;;;11.40;99.90;;;;;;5051552;28;20091;-73
2021/10/06 03:34:35;;;;;;;2.22;0.77;;;11.30;99.90;;;;;;5051392;28;20072;-73
2021/10/06 03:37:01;;;;;;;5.53;0.63;;;11.30;99.90;;;;;;5051716;28;20481;-73
2021/10/06 03:39:27;;;;;;;12.18;1.38;;;11.30;99.90;;;;;;5051410;28;20072;-73
2021/10/06 03:41:52;;;;;;;2.55;0.30;;;11.20;99.90;;;;;;5051115;28;20028;-73
2021/10/06 03:44:18;;;;;;;4.20;0.60;;;11.20;99.90;;;;;;5051356;28;20040;-73
2021/10/06 03:46:43;;;;;;;2.10;0.30;;;11.20;99.90;;;;;;5049856;28;20044;-73
2021/10/06 03:49:09;;;;;;;1.48;0.40;;;11.20;99.90;;;;;;5051386;28;20108;-73
2021/10/06 03:51:34;;;;;;;6.05;0.40;;;11.10;99.90;;;;;;5051003;28;20043;-73
2021/10/06 03:54:00;;;;;;;1.80;0.20;;;11.10;99.90;;;;;;5051302;28;20456;-73
2021/10/06 03:56:26;;;;;;;5.35;0.35;;;11.10;99.90;;;;;;5049699;28;20056;-73
2021/10/06 03:58:52;;;;;;;4.10;1.20;;;11.10;99.90;;;;;;5051173;28;20401;-73
2021/10/06 04:01:18;;;;;;;1.35;0.52;;;11.10;99.90;;;;;;5051005;28;20175;-73
2021/10/06 04:03:43;;;;;;;2.40;0.50;;;11.10;99.90;;;;;;5050503;28;20096;-73
2021/10/06 04:06:09;;;;;;;7.45;0.57;;;11.10;99.90;;;;;;5050998;28;20028;-73
2021/10/06 04:08:34;;;;;;;5.43;1.02;;;11.00;99.90;;;;;;5048927;28;20417;-73
2021/10/06 04:11:00;;;;;;;4.40;0.55;;;11.00;99.90;;;;;;5050812;28;20544;-73
2021/10/06 04:13:25;;;;;;;1.58;0.30;;;11.00;99.90;;;;;;5051019;28;20040;-72
2021/10/06 04:15:51;;;;;;;9.90;1.15;;;11.00;99.90;;;;;;5050759;28;20025;-73
2021/10/06 04:18:17;;;;;;;8.20;1.48;;;11.00;99.90;;;;;;5050683;28;20029;-72
2021/10/06 04:20:43;;;;;;;4.05;0.85;;;10.90;99.90;;;;;;5050631;28;20031;-73
2021/10/06 04:23:08;;;;;;;7.35;1.05;;;10.90;99.90;;;;;;5050515;28;20055;-72
2021/10/06 04:25:34;;;;;;;9.32;1.27;;;11.00;99.90;;;;;;5050457;28;20012;-72
2021/10/06 04:27:59;;;;;;;5.20;0.90;;;11.00;99.90;;;;;;5049543;28;20382;-73
2021/10/06 04:30:25;;;;;;;4.93;0.90;;;11.00;99.90;;;;;;5050173;28;20025;-73
2021/10/06 04:32:50;;;;;;;7.82;1.02;;;11.00;99.90;;;;;;5049835;28;20502;-73
2021/10/06 04:35:16;;;;;;;6.65;1.20;;;11.10;99.90;;;;;;5043402;28;20087;-73
2021/10/06 04:37:41;;;;;;;9.25;1.33;;;11.10;99.90;;;;;;5043858;28;20059;-72
2021/10/06 04:40:08;;;;;;;8.98;1.27;;;11.20;99.90;;;;;;5047238;28;20025;-73
2021/10/06 04:42:34;;;;;;;7.22;0.98;;;11.20;99.90;;;;;;5044945;28;20037;-73
2021/10/06 04:45:00;;;;;;;10.20;1.38;;;11.30;99.90;;;;;;5038823;28;20023;-73
2021/10/06 04:47:25;;;;;;;7.80;1.60;;;11.30;99.90;;;;;;5039321;28;20017;-72
2021/10/06 04:49:51;;;;;;;11.27;1.70;;;11.30;99.90;;;;;;5041351;28;20075;-73
2021/10/06 04:52:16;;;;;;;9.52;1.30;;;11.30;99.90;;;;;;5040892;28;20071;-73
2021/10/06 04:54:42;;;;;;;9.48;0.93;;;11.40;99.90;;;;;;5043580;28;20454;-72
2021/10/06 04:57:07;;;;;;;10.38;1.20;;;11.40;99.90;;;;;;5043873;28;20039;-73
2021/10/06 04:59:33;;;;;;;11.50;1.63;;;11.50;99.90;;;;;;5044085;28;20482;-73
2021/10/06 05:01:59;;;;;;;14.30;1.23;;;11.60;99.90;;;;;;5042124;28;20017;-72
2021/10/06 05:04:26;;;;;;;8.13;1.45;;;11.60;99.90;;;;;;5042023;28;20052;-72
2021/10/06 05:06:51;;;;;;;23.88;5.07;;;11.60;99.90;;;;;;5039512;28;20614;-72
2021/10/06 05:09:18;;;;;;;11.20;1.05;;;11.70;99.90;;;;;;5043754;28;20051;-72
2021/10/06 05:11:43;;;;;;;15.95;2.55;;;11.70;99.90;;;;;;5038395;28;20096;-72
2021/10/06 05:14:09;;;;;;;14.23;1.65;;;11.70;99.90;;;;;;5049851;28;20103;-73
2021/10/06 05:16:35;;;;;;;14.27;1.52;;;11.70;99.90;;;;;;5050109;28;20033;-73
2021/10/06 05:19:00;;;;;;;9.68;1.35;;;11.80;99.90;;;;;;5050233;28;20032;-72
2021/10/06 05:21:26;;;;;;;11.23;1.65;;;11.80;99.90;;;;;;5053742;28;20021;-72
2021/10/06 05:23:51;;;;;;;11.93;2.40;;;11.90;99.90;;;;;;5053398;28;20724;-73
2021/10/06 05:26:17;;;;;;;17.95;2.08;;;11.90;99.90;;;;;;5050929;28;20013;-72
2021/10/06 05:28:43;;;;;;;7.43;2.03;;;11.90;99.90;;;;;;5043528;28;20393;-72
2021/10/06 05:31:08;;;;;;;13.02;3.08;;;11.90;99.90;;;;;;5045450;28;20021;-72
2021/10/06 05:33:34;;;;;;;20.98;2.95;;;12.00;99.90;;;;;;5045364;28;20021;-73
2021/10/06 05:35:59;;;;;;;17.42;2.00;;;12.00;99.90;;;;;;5049609;28;20017;-73
2021/10/06 05:38:25;;;;;;;16.98;2.60;;;12.00;99.90;;;;;;5047096;28;20036;-72
2021/10/06 05:40:51;;;;;;;12.80;3.00;;;12.00;99.90;;;;;;5052584;28;20405;-72
2021/10/06 05:43:17;;;;;;;7.55;1.98;;;12.00;99.90;;;;;;5052001;28;20009;-72
2021/10/06 05:45:42;;;;;;;9.60;2.00;;;12.00;99.90;;;;;;5050979;28;20377;-72
2021/10/06 05:48:08;;;;;;;24.42;2.70;;;12.00;99.90;;;;;;5045222;28;20021;-73
2021/10/06 05:50:34;;;;;;;14.25;2.40;;;12.10;99.90;;;;;;5048976;28;20017;-72
2021/10/06 05:53:00;;;;;;;14.38;2.47;;;12.00;99.90;;;;;;5052185;28;20021;-72
2021/10/06 05:55:26;;;;;;;16.13;3.10;;;12.10;99.90;;;;;;5047140;28;20032;-72
2021/10/06 05:57:52;;;;;;;11.15;2.17;;;12.00;99.90;;;;;;5053080;28;20100;-72
2021/10/06 06:00:17;;;;;;;8.68;2.58;;;12.00;99.90;;;;;;5047691;28;20025;-73
2021/10/06 06:02:45;;;;;;;14.77;3.58;;;12.10;99.90;;;;;;5044063;28;20025;-73
2021/10/06 06:05:11;;;;;;;10.65;1.85;;;12.10;99.90;;;;;;5045145;28;20408;-70
2021/10/06 06:07:36;;;;;;;15.48;3.35;;;12.10;99.90;;;;;;5045860;28;20435;-72
2021/10/06 06:10:03;;;;;;;15.10;2.38;;;12.10;99.90;;;;;;5049149;28;20043;-72
2021/10/06 06:12:29;;;;;;;18.70;2.92;;;12.10;99.90;;;;;;5051274;28;20024;-72
2021/10/06 06:14:54;;;;;;;9.25;1.77;;;12.10;99.90;;;;;;5052334;28;20104;-73
2021/10/06 06:17:20;;;;;;;12.80;2.40;;;12.10;99.90;;;;;;5043831;28;20064;-74
2021/10/06 06:19:45;;;;;;;13.05;1.85;;;12.10;99.90;;;;;;5044846;28;20569;-74
2021/10/06 06:22:11;;;;;;;12.52;1.80;;;12.10;99.90;;;;;;5042511;28;20508;-73
2021/10/06 06:24:37;;;;;;;11.65;2.05;;;12.10;99.90;;;;;;5046791;28;20028;-73
2021/10/06 06:27:03;;;;;;;7.78;1.67;;;12.20;99.90;;;;;;5041659;28;20490;-73
2021/10/06 06:29:29;;;;;;;13.35;1.77;;;12.10;99.90;;;;;;5047097;28;20021;-74
2021/10/06 06:31:54;;;;;;;16.40;4.03;;;12.20;99.90;;;;;;5045008;28;20086;-74
2021/10/06 06:34:20;;;;;;;15.50;3.63;;;12.10;99.90;;;;;;5039829;28;20075;-72
2021/10/06 06:36:45;;;;;;;17.58;4.45;;;12.10;99.90;;;;;;5045065;28;20402;-71
2021/10/06 06:39:11;;;;;;;9.30;1.45;;;12.10;99.90;;;;;;5051991;28;20029;-71
2021/10/06 06:41:36;;;;;;;9.13;1.40;;;12.20;99.90;;;;;;5051775;28;20025;-71
2021/10/06 06:44:02;;;;;;;7.10;2.28;;;12.10;99.90;;;;;;5052259;28;20478;-71
2021/10/06 06:46:28;;;;;;;7.25;1.73;;;12.20;99.90;;;;;;5051775;28;20013;-71
2021/10/06 06:48:54;;;;;;;10.70;1.50;;;12.20;99.90;;;;;;5052366;28;20474;-73
2021/10/06 06:51:20;;;;;;;8.60;1.70;;;12.20;99.90;;;;;;5052109;28;20040;-71
2021/10/06 06:53:45;;;;;;;11.43;1.70;;;12.20;99.90;;;;;;5052255;28;20095;-71
2021/10/06 06:56:11;;;;;;;14.93;2.65;;;12.20;99.90;;;;;;5051884;28;20036;-71
2021/10/06 06:58:36;;;;;;;11.18;1.52;;;12.20;99.90;;;;;;5052052;28;20028;-71
2021/10/06 07:01:02;;;;;;;14.57;1.83;;;12.20;99.90;;;;;;5052005;28;20029;-71
2021/10/06 07:03:27;;;;;;;9.02;1.30;;;12.30;99.90;;;;;;5051309;28;20052;-71
2021/10/06 07:05:53;;;;;;;10.55;1.38;;;12.30;99.90;;;;;;5051948;28;20103;-71
2021/10/06 07:08:18;;;;;;;14.20;3.60;;;12.30;99.90;;;;;;5051662;28;20025;-71
2021/10/06 07:10:44;;;;;;;23.98;5.35;;;12.30;99.90;;;;;;5051579;28;20025;-71
2021/10/06 07:13:09;;;;;;;9.02;1.40;;;12.40;99.90;;;;;;5040561;28;20032;-71
2021/10/06 07:15:36;;;;;;;14.05;1.77;;;12.40;99.90;;;;;;5045958;28;20442;-74
2021/10/06 07:18:02;;;;;;;17.52;1.55;;;12.40;99.90;;;;;;5043298;28;20017;-72
2021/10/06 07:20:27;;;;;;;18.88;2.70;;;12.40;99.90;;;;;;5042506;28;20051;-71
2021/10/06 07:22:54;;;;;;;8.85;1.63;;;12.50;99.90;;;;;;5041113;28;20425;-71
2021/10/06 07:25:19;;;;;;;11.45;1.70;;;12.50;99.90;;;;;;5043348;28;20021;-73
2021/10/06 07:27:45;;;;;;;4.93;1.00;;;12.50;99.90;;;;;;5042536;28;20100;-71
2021/10/06 07:30:11;;;;;;;7.70;1.27;;;12.50;99.90;;;;;;5044923;28;20027;-72
2021/10/06 07:32:37;;;;;;;7.78;0.88;;;12.50;99.90;;;;;;5049895;28;20021;-72
2021/10/06 07:35:04;;;;;;;6.93;1.30;;;12.50;99.90;;;;;;5051382;28;20025;-71
2021/10/06 07:37:29;;;;;;;9.02;1.75;;;12.50;99.90;;;;;;5042363;28;20037;-71
2021/10/06 07:39:55;;;;;;;8.25;1.30;;;12.40;99.90;;;;;;5041810;28;20017;-71
2021/10/06 07:42:20;;;;;;;4.30;1.40;;;12.40;99.90;;;;;;5047268;28;20028;-71
2021/10/06 07:44:47;;;;;;;4.43;0.40;;;12.30;99.90;;;;;;5051313;28;20021;-72
2021/10/06 07:47:12;;;;;;;8.98;1.42;;;12.30;99.90;;;;;;5045250;28;20029;-71
2021/10/06 07:49:39;;;;;;;3.70;0.70;;;12.30;99.90;;;;;;5048962;28;20504;-74
2021/10/06 07:52:04;;;;;;;5.15;0.60;;;12.20;99.90;;;;;;5043133;28;20029;-74
2021/10/06 07:54:30;;;;;;;4.22;0.45;;;12.20;99.90;;;;;;5035882;28;20025;-74
2021/10/06 07:56:56;;;;;;;11.63;2.13;;;12.20;99.90;;;;;;5050744;28;20031;-73
2021/10/06 07:59:21;;;;;;;10.20;1.33;;;12.20;99.90;;;;;;5050481;28;20036;-74
2021/10/06 08:01:47;;;;;;;7.55;1.02;;;12.10;99.90;;;;;;5044131;28;20028;-73
2021/10/06 08:04:13;;;;;;;10.05;1.10;;;12.10;99.90;;;;;;5040354;28;20380;-73
2021/10/06 08:06:38;;;;;;;14.55;1.92;;;12.10;99.90;;;;;;5040767;28;20025;-73
2021/10/06 08:09:08;;;;;;;8.68;1.52;;;12.10;99.90;;;;;;5045501;28;20040;-73
2021/10/06 08:11:34;;;;;;;13.63;2.25;;;12.20;99.90;;;;;;5040961;28;20573;-73
2021/10/06 08:14:00;;;;;;;4.10;1.10;;;12.20;99.90;;;;;;5038644;28;20043;-73
2021/10/06 08:16:26;;;;;;;6.00;1.20;;;12.30;99.90;;;;;;5042165;28;20033;-74
2021/10/06 08:18:51;;;;;;;4.05;0.75;;;12.30;99.90;;;;;;5043611;28;20032;-74
2021/10/06 08:21:17;;;;;;;6.82;1.95;;;12.40;99.90;;;;;;5039610;28;20056;-74
2021/10/06 08:23:43;;;;;;;8.20;1.15;;;12.50;99.90;;;;;;5041027;28;20017;-74
2021/10/06 08:26:08;;;;;;;6.10;1.42;;;12.70;99.90;;;;;;5038969;28;20529;-74
2021/10/06 08:28:34;;;;;;;2.97;0.50;;;12.90;99.90;;;;;;5037790;28;21245;-74
2021/10/06 08:31:01;;;;;;;3.28;0.52;;;13.20;99.90;;;;;;5039349;28;20376;-73
2021/10/06 08:33:27;;;;;;;10.00;1.10;;;13.80;99.90;;;;;;5039630;28;20040;-73
2021/10/06 08:35:52;;;;;;;3.95;0.55;;;14.60;99.90;;;;;;5040396;28;20104;-72
2021/10/06 08:38:18;;;;;;;6.00;0.82;;;15.50;99.90;;;;;;5044917;28;20096;-72
2021/10/06 08:40:44;;;;;;;6.43;1.27;;;16.10;99.90;;;;;;5039734;28;20025;-73
2021/10/06 08:43:10;;;;;;;15.65;1.48;;;16.40;99.90;;;;;;5032388;28;20089;-73
2021/10/06 08:45:36;;;;;;;10.40;1.42;;;16.40;99.90;;;;;;5039759;28;20534;-73
2021/10/06 08:48:03;;;;;;;6.72;2.08;;;16.30;99.90;;;;;;5046672;28;20152;-73
2021/10/06 08:50:29;;;;;;;10.38;1.75;;;16.00;99.90;;;;;;5051793;28;20025;-72
2021/10/06 08:52:54;;;;;;;14.93;2.10;;;15.80;99.90;;;;;;5050580;28;20024;-73
2021/10/06 08:55:30;;;;;;;10.90;1.85;;;15.60;99.90;;;;;;5054156;28;20051;-72
2021/10/06 08:58:02;;;;;;;8.32;1.35;;;15.70;99.90;;;;;;5054369;28;20043;-73
2021/10/06 09:00:29;;;;;;;7.18;1.00;;;16.30;99.90;;;;;;5052535;28;20350;-73
2021/10/06 09:03:05;;;;;;;5.88;0.82;;;16.90;99.90;;;;;;5053860;28;20025;-73
2021/10/06 09:05:31;;;;;;;6.25;1.05;;;17.60;99.90;;;;;;5052483;28;20027;-73
2021/10/06 09:08:05;;;;;;;8.07;0.68;;;18.10;99.90;;;;;;5054030;28;20013;-73
2021/10/06 09:10:34;;;;;;;8.32;0.65;;;18.20;99.90;;;;;;5050132;28;20025;-73
2021/10/06 09:13:07;;;;;;;3.65;1.20;;;18.00;99.90;;;;;;5053859;28;20387;-73
2021/10/06 09:15:44;;;;;;;5.97;1.60;;;17.50;99.90;;;;;;5045506;28;20032;-73
2021/10/06 09:18:15;;;;;;;6.32;1.70;;;17.20;99.90;;;;;;5048581;28;20021;-73
2021/10/06 09:20:41;;;;;;;13.85;1.92;;;17.00;99.90;;;;;;5050149;28;20074;-72
2021/10/06 09:23:10;;;;;;;10.15;2.33;;;16.90;99.90;;;;;;5043458;28;20021;-72
2021/10/06 09:25:58;;;;;;;19.58;3.97;;;17.00;99.90;;;;;;5039617;28;20104;-73
2021/10/06 09:28:31;;;;;;;16.63;1.98;;;17.30;99.90;;;;;;5050366;28;20033;-73
2021/10/06 09:31:08;;;;;;;5.38;0.98;;;17.40;99.90;;;;;;5053256;28;20031;-73
2021/10/06 09:33:57;;;;;;;11.05;1.25;;;17.60;99.90;;;;;;5052850;28;20031;-73
2021/10/06 09:36:30;;;;;;;6.35;1.20;;;17.60;99.90;;;;;;5052721;28;20029;-73
2021/10/06 09:39:05;;;;;;;13.68;1.38;;;17.50;99.90;;;;;;5047380;28;20027;-73
2021/10/06 09:41:46;;;;;;;8.80;1.20;;;17.40;99.90;;;;;;5052633;28;20478;-73
2021/10/06 09:44:21;;;;;;;11.43;1.98;;;17.50;99.90;;;;;;5050271;28;20031;-73
2021/10/06 09:46:52;;;;;;;8.32;1.10;;;17.60;99.90;;;;;;5044083;28;20402;-73
2021/10/06 09:49:34;;;;;;;6.43;0.95;;;17.70;99.90;;;;;;5052432;28;20025;-73
2021/10/06 09:52:22;;;;;;;14.65;1.10;;;18.10;99.90;;;;;;5042254;28;20091;-73
2021/10/06 09:54:56;;;;;;;6.00;0.85;;;18.40;99.90;;;;;;5048272;28;20040;-73
2021/10/06 09:57:30;;;;;;;4.97;0.80;;;18.60;99.90;;;;;;5047549;28;20738;-73
2021/10/06 09:59:59;;;;;;;12.25;1.48;;;18.80;99.90;;;;;;5050028;28;20028;-73
2021/10/06 10:02:26;;;;;;;8.93;0.50;;;19.20;99.90;;;;;;5050522;28;20127;-73
2021/10/06 10:04:57;;;;;;;8.27;0.45;;;19.60;99.90;;;;;;5051729;28;20049;-73
2021/10/06 10:07:23;;;;;;;5.25;0.50;;;20.00;99.90;;;;;;5052597;28;20013;-73
2021/10/06 10:09:50;;;;;;;9.05;2.28;;;20.00;99.30;;;;;;5051090;28;20104;-73
2021/10/06 10:12:23;;;;;;;9.40;1.90;;;19.90;99.00;;;;;;5052033;28;20466;-73
2021/10/06 10:14:50;;;;;;;11.13;1.45;;;19.70;99.10;;;;;;5044760;28;20029;-73
2021/10/06 10:17:17;;;;;;;8.75;2.25;;;19.50;99.20;;;;;;5050422;28;20021;-73
2021/10/06 10:19:44;;;;;;;3.50;0.73;;;19.40;98.70;;;;;;5047302;28;20036;-73
2021/10/06 10:22:12;;;;;;;8.40;1.63;;;19.30;98.50;;;;;;5046317;28;20029;-73
2021/10/06 10:24:46;;;;;;;6.50;0.90;;;19.10;98.70;;;;;;5048565;28;20017;-73
2021/10/06 10:27:14;;;;;;;9.43;2.15;;;19.20;98.70;;;;;;5045371;28;20037;-71
2021/10/06 10:29:50;;;;;;;7.93;1.15;;;19.40;98.40;;;;;;5050567;28;20044;-74
2021/10/06 10:32:20;;;;;;;8.75;0.95;;;19.80;98.40;;;;;;5048049;28;20501;-73
2021/10/06 10:35:05;;;;;;;8.25;0.65;;;20.20;98.20;;;;;;5051566;28;20021;-73
2021/10/06 10:37:49;;;;;;;2.42;0.32;;;20.60;96.50;;;;;;5051692;28;20037;-74
2021/10/06 10:40:33;;;;;;;7.53;0.93;;;21.00;96.80;;;;;;5048265;28;20025;-73
2021/10/06 10:43:06;;;;;;;8.23;0.60;;;21.30;96.30;;;;;;5049769;28;20017;-73
2021/10/06 10:45:44;;;;;;;3.50;0.40;;;21.60;95.40;;;;;;5047874;28;20098;-74
2021/10/06 10:48:22;;;;;;;5.07;0.95;;;21.80;95.00;;;;;;5047319;28;20021;-74
2021/10/06 10:50:47;;;;;;;4.60;1.13;;;22.00;94.70;;;;;;5041593;28;20389;-73
2021/10/06 10:53:16;;;;;;;6.97;1.10;;;22.20;94.80;;;;;;5045951;28;20028;-73
2021/10/06 10:56:00;;;;;;;10.77;1.75;;;22.40;94.30;;;;;;5046431;28;20028;-73
2021/10/06 10:58:26;;;;;;;6.55;1.02;;;22.60;93.80;;;;;;5048523;28;20068;-74
2021/10/06 11:00:52;;;;;;;6.43;0.80;;;22.60;93.60;;;;;;5045441;28;20040;-75
2021/10/06 11:03:17;;;;;;;7.30;0.65;;;22.40;93.30;;;;;;5039090;28;20033;-75
2021/10/06 11:05:48;;;;;;;7.65;0.65;;;22.00;93.00;;;;;;5039683;28;20029;-75
2021/10/06 11:08:25;;;;;;;6.13;0.75;;;21.70;93.10;;;;;;5040205;28;20013;-74
2021/10/06 11:11:09;;;;;;;7.22;1.15;;;21.30;93.40;;;;;;5043080;28;20374;-75
2021/10/06 11:13:37;;;;;;;7.30;1.52;;;20.80;93.90;;;;;;5048824;28;20362;-75
2021/10/06 11:16:04;;;;;;;4.65;0.43;;;20.30;94.60;;;;;;5047656;28;20044;-75
2021/10/06 11:18:44;;;;;;;4.30;0.55;;;19.90;95.00;;;;;;5038070;28;20456;-75
2021/10/06 11:21:10;;;;;;;5.45;0.70;;;19.40;95.30;;;;;;5043117;28;20050;-75
2021/10/06 11:23:36;;;;;;;4.40;1.25;;;19.10;95.80;;;;;;5046060;28;20497;-75
2021/10/06 11:26:25;;;;;;;2.67;0.45;;;18.70;96.20;;;;;;5038726;28;20036;-75
2021/10/06 11:28:52;;;;;;;3.10;1.10;;;18.50;96.70;;;;;;5041153;28;20029;-75
2021/10/06 11:31:32;;;;;;;4.35;0.30;;;18.40;97.70;;;;;;5046342;28;20013;-75
2021/10/06 11:33:59;;;;;;;6.57;0.98;;;18.50;97.50;;;;;;5044548;28;20035;-75
2021/10/06 11:36:34;;;;;;;4.00;0.70;;;18.60;97.80;;;;;;5043033;28;20024;-75
2021/10/06 11:39:11;;;;;;;7.68;0.75;;;18.60;97.70;;;;;;5039137;28;20024;-75
2021/10/06 11:41:43;;;;;;;6.57;0.98;;;18.60;97.60;;;;;;5039309;28;20048;-75
2021/10/06 11:44:09;;;;;;;8.15;1.00;;;18.50;97.80;;;;;;5039189;28;20485;-75
2021/10/06 11:46:35;;;;;;;8.77;1.27;;;18.20;98.10;;;;;;5043436;28;20020;-74
2021/10/06 11:49:06;;;;;;;4.05;1.10;;;18.00;98.40;;;;;;5047491;28;20547;-75
2021/10/06 11:51:49;;;;;;;7.60;1.15;;;18.00;98.70;;;;;;5047738;28;20024;-76
2021/10/06 11:54:16;;;;;;;9.95;0.77;;;17.90;98.90;;;;;;5037644;28;20029;-74
2021/10/06 11:56:43;;;;;;;4.70;0.45;;;18.00;99.10;;;;;;5044470;28;20024;-75
2021/10/06 11:59:13;;;;;;;10.80;1.92;;;18.10;99.30;;;;;;5037720;28;20478;-75
2021/10/06 12:01:40;;;;;;;5.45;0.82;;;18.20;99.50;;;;;;5045569;28;20485;-75
2021/10/06 12:04:15;;;;;;;11.93;0.95;;;18.40;99.40;;;;;;5044235;28;20112;-74
2021/10/06 12:06:43;;;;;;;13.63;1.52;;;18.50;99.50;;;;;;5047575;28;20029;-76
2021/10/06 12:09:09;;;;;;;7.13;1.10;;;18.60;99.40;;;;;;5045914;28;20055;-75
2021/10/06 12:11:40;;;;;;;6.85;0.80;;;18.60;99.30;;;;;;5072759;22;20044;-76
2021/10/06 12:14:25;;;;;;;6.60;0.52;;;18.70;99.40;;;;;;5049040;28;20069;-71
2021/10/06 12:17:21;;;;;;;7.15;1.02;;;18.90;99.00;;;;;;5041698;28;20029;-73
2021/10/06 12:20:06;;;;;;;7.60;1.30;;;18.80;98.70;;;;;;5039073;28;20028;-71
2021/10/06 12:22:36;;;;;;;6.90;0.82;;;18.70;98.50;;;;;;5037153;28;20025;-71
2021/10/06 12:25:08;;;;;;;7.63;0.93;;;18.50;98.60;;;;;;5045314;28;20028;-73
2021/10/06 12:27:50;;;;;;;3.50;0.50;;;18.50;98.50;;;;;;5040072;28;20024;-73
2021/10/06 12:30:27;;;;;;;4.95;0.88;;;18.30;98.60;;;;;;5041403;28;20478;-71
2021/10/06 12:33:01;;;;;;;4.72;0.63;;;18.20;98.70;;;;;;5041929;28;20021;-72
2021/10/06 12:35:27;;;;;;;3.33;0.45;;;18.10;99.00;;;;;;5039650;28;20029;-71
2021/10/06 12:37:59;;;;;;;5.03;0.80;;;18.00;99.20;;;;;;5040170;28;20163;-71
2021/10/06 12:40:36;;;;;;;6.75;0.55;;;18.00;99.40;;;;;;5041542;28;20029;-71
2021/10/06 12:43:16;;;;;;;7.68;0.77;;;17.90;99.60;;;;;;5040651;28;20032;-72
2021/10/06 12:46:11;;;;;;;10.75;2.10;;;17.90;99.50;;;;;;5039205;28;20079;-72
2021/10/06 12:48:57;;;;;;;12.85;2.58;;;17.80;99.50;;;;;;5042633;28;20087;-72